Time;durP1;ratioP1;P1;durP2;ratioP2;P2;SDS_P1;SDS_P2;PMS_P1;PMS_P2;Temp;Humidity;BMP_temperature;BMP_pressure;BME280_temperature;BME280_humidity;BME280_pressure;Samples;Min_cycle;Max_cycle;Signal;HPM_P1;HPM_P2
2023/10/18 00:00:49;;;;;;;10.20;5.37;;;7.20;99.90;;;;;;5037957;28;20452;-55
2023/10/18 00:03:18;;;;;;;7.27;5.30;;;7.30;99.90;;;;;;5037947;28;20420;-61
2023/10/18 00:05:49;;;;;;;14.57;7.30;;;7.20;99.90;;;;;;5037553;28;20437;-58
2023/10/18 00:08:22;;;;;;;14.10;6.70;;;7.20;99.90;;;;;;5038668;28;20524;-56
2023/10/18 00:10:50;;;;;;;9.90;6.63;;;7.20;99.90;;;;;;5057858;28;20460;-54
2023/10/18 00:13:18;;;;;;;17.60;8.23;;;7.30;99.90;;;;;;5057616;28;20567;-60
2023/10/18 00:15:45;;;;;;;11.23;7.03;;;7.30;99.90;;;;;;5057621;28;20452;-62
2023/10/18 00:18:12;;;;;;;15.23;9.27;;;7.30;99.90;;;;;;5057431;28;20472;-55
2023/10/18 00:20:39;;;;;;;13.10;7.50;;;7.30;99.90;;;;;;5057447;28;20444;-59
2023/10/18 00:23:07;;;;;;;11.90;7.90;;;7.30;99.90;;;;;;5057631;28;20499;-59
2023/10/18 00:25:37;;;;;;;14.23;8.60;;;7.20;99.90;;;;;;5057348;28;20483;-55
2023/10/18 00:28:04;;;;;;;13.87;9.40;;;7.20;99.90;;;;;;5057341;28;20475;-63
2023/10/18 00:30:31;;;;;;;12.70;7.10;;;7.10;99.90;;;;;;5057246;28;20762;-61
2023/10/18 00:32:58;;;;;;;13.70;8.30;;;7.10;99.90;;;;;;5057408;28;20472;-59
2023/10/18 00:35:31;;;;;;;18.13;8.57;;;7.10;99.90;;;;;;5057329;28;20459;-65
2023/10/18 00:37:59;;;;;;;14.20;8.17;;;7.00;99.90;;;;;;5057321;28;20785;-59
2023/10/18 00:40:36;;;;;;;9.00;7.47;;;7.00;99.90;;;;;;5056889;28;20468;-64
2023/10/18 00:43:07;;;;;;;13.20;8.40;;;7.00;99.90;;;;;;5057403;28;20447;-60
2023/10/18 00:45:43;;;;;;;11.00;7.33;;;6.90;99.90;;;;;;5057570;28;20433;-58
2023/10/18 00:48:12;;;;;;;11.67;7.33;;;6.90;99.90;;;;;;5057059;28;20475;-54
2023/10/18 00:50:42;;;;;;;14.07;7.27;;;6.90;99.90;;;;;;5057510;28;20458;-58
2023/10/18 00:53:10;;;;;;;16.03;8.30;;;6.80;99.90;;;;;;5061187;28;20416;-59
2023/10/18 00:55:40;;;;;;;13.87;6.93;;;6.80;99.90;;;;;;5061123;28;20471;-51
2023/10/18 00:58:08;;;;;;;14.50;8.80;;;6.80;99.90;;;;;;5061332;28;20423;-61
2023/10/18 01:00:37;;;;;;;12.70;7.60;;;6.80;99.90;;;;;;5061066;28;20507;-54
2023/10/18 01:03:09;;;;;;;11.00;7.40;;;6.70;99.90;;;;;;5061042;28;20428;-59
2023/10/18 01:05:36;;;;;;;10.10;6.50;;;6.80;99.90;;;;;;5061111;28;20412;-67
2023/10/18 01:08:06;;;;;;;9.37;6.40;;;6.80;99.90;;;;;;5061068;28;20483;-58
2023/10/18 01:10:36;;;;;;;18.53;7.60;;;6.70;99.90;;;;;;5061195;28;20512;-65
2023/10/18 01:13:06;;;;;;;10.63;7.37;;;6.70;99.90;;;;;;5061073;28;20444;-56
2023/10/18 01:15:33;;;;;;;7.40;6.33;;;6.70;99.90;;;;;;5060948;28;20460;-55
2023/10/18 01:18:00;;;;;;;7.33;6.20;;;6.70;99.90;;;;;;5061207;28;20436;-57
2023/10/18 01:20:33;;;;;;;10.10;6.83;;;6.60;99.90;;;;;;5061271;28;20444;-58
2023/10/18 01:23:01;;;;;;;9.23;6.97;;;6.60;99.90;;;;;;5060849;28;20472;-51
2023/10/18 01:25:29;;;;;;;8.30;6.20;;;6.60;99.90;;;;;;5061031;28;20471;-60
2023/10/18 01:27:59;;;;;;;12.03;6.80;;;6.60;99.90;;;;;;5061085;28;20475;-49
2023/10/18 01:30:29;;;;;;;11.73;7.03;;;6.60;99.90;;;;;;5060328;28;20467;-52
2023/10/18 01:32:56;;;;;;;13.10;6.93;;;6.60;99.90;;;;;;5060878;28;20428;-63
2023/10/18 01:35:25;;;;;;;9.03;5.97;;;6.60;99.90;;;;;;5060711;28;20448;-56
2023/10/18 01:37:53;;;;;;;13.97;6.77;;;6.50;99.90;;;;;;5060692;28;20510;-56
2023/10/18 01:40:22;;;;;;;8.10;6.60;;;6.60;99.90;;;;;;5060551;28;20471;-63
2023/10/18 01:42:56;;;;;;;9.53;5.40;;;6.50;99.90;;;;;;5060601;28;20448;-52
2023/10/18 01:45:23;;;;;;;12.90;6.87;;;6.50;99.90;;;;;;5060485;28;20464;-57
2023/10/18 01:47:52;;;;;;;11.00;6.40;;;6.50;99.90;;;;;;5060725;28;20474;-56
2023/10/18 01:50:21;;;;;;;14.03;6.10;;;6.50;99.90;;;;;;5060595;28;20491;-52
2023/10/18 01:52:49;;;;;;;10.50;6.30;;;6.50;99.90;;;;;;5060211;28;20447;-53
2023/10/18 01:55:18;;;;;;;10.40;7.40;;;6.50;99.90;;;;;;5060051;28;20432;-56
2023/10/18 01:57:45;;;;;;;9.00;6.60;;;6.50;99.90;;;;;;5060060;28;20439;-59
2023/10/18 02:00:18;;;;;;;12.07;6.70;;;6.50;99.90;;;;;;5060475;28;20436;-63
2023/10/18 02:02:48;;;;;;;10.90;7.70;;;6.60;99.90;;;;;;5059412;28;20436;-52
2023/10/18 02:05:16;;;;;;;9.67;6.83;;;6.60;99.90;;;;;;5059950;28;20470;-53
2023/10/18 02:07:47;;;;;;;18.50;8.03;;;6.70;99.90;;;;;;5059801;28;20459;-58
2023/10/18 02:10:20;;;;;;;9.93;6.87;;;6.70;99.90;;;;;;5060039;28;20435;-53
2023/10/18 02:12:48;;;;;;;10.33;7.10;;;6.80;99.90;;;;;;5059603;28;20433;-55
2023/10/18 02:15:16;;;;;;;10.37;7.10;;;6.80;99.90;;;;;;5059727;28;20443;-58
2023/10/18 02:17:45;;;;;;;15.00;7.67;;;6.80;99.90;;;;;;5059771;28;20460;-53
2023/10/18 02:20:25;;;;;;;9.33;6.67;;;6.70;99.90;;;;;;5059590;28;20483;-63
2023/10/18 02:22:53;;;;;;;11.90;7.80;;;6.70;99.90;;;;;;5142164;22;22481;-67
2023/10/18 02:25:36;;;;;;;11.83;7.43;;;6.60;99.90;;;;;;5039776;28;20542;-67
2023/10/18 02:28:08;;;;;;;12.70;7.33;;;6.60;99.90;;;;;;5036964;28;20491;-65
2023/10/18 02:30:40;;;;;;;19.47;7.93;;;6.60;99.90;;;;;;5036782;28;20429;-67
2023/10/18 02:33:08;;;;;;;18.13;10.30;;;6.50;99.90;;;;;;5036110;28;20457;-67
2023/10/18 02:35:40;;;;;;;9.43;8.43;;;6.50;99.90;;;;;;5035954;28;20925;-67
2023/10/18 02:38:12;;;;;;;12.27;8.00;;;6.50;99.90;;;;;;5037353;28;20562;-67
2023/10/18 02:40:40;;;;;;;14.23;7.10;;;6.60;99.90;;;;;;5036784;28;20468;-66
2023/10/18 02:43:11;;;;;;;9.60;6.83;;;6.50;99.90;;;;;;5038391;28;20483;-66
2023/10/18 02:45:51;;;;;;;11.20;7.93;;;6.50;99.90;;;;;;5034825;28;20933;-67
2023/10/18 02:48:24;;;;;;;11.77;7.63;;;6.50;99.90;;;;;;5037798;28;20460;-66
2023/10/18 02:50:54;;;;;;;15.83;7.90;;;6.50;99.90;;;;;;5040204;28;20432;-67
2023/10/18 02:53:21;;;;;;;9.77;7.97;;;6.50;99.90;;;;;;5038953;28;20433;-67
2023/10/18 02:55:55;;;;;;;18.03;9.07;;;6.50;99.90;;;;;;5043625;28;20432;-66
2023/10/18 02:58:27;;;;;;;11.00;7.80;;;6.50;99.90;;;;;;5042235;28;20472;-67
2023/10/18 03:01:05;;;;;;;12.63;8.50;;;6.40;99.90;;;;;;5039364;28;20560;-67
2023/10/18 03:03:33;;;;;;;13.10;8.10;;;6.40;99.90;;;;;;5034796;28;20471;-68
2023/10/18 03:06:05;;;;;;;22.93;9.77;;;6.30;99.90;;;;;;5035113;28;20445;-68
2023/10/18 03:08:33;;;;;;;10.83;8.60;;;6.30;99.90;;;;;;5034686;28;20429;-67
2023/10/18 03:11:03;;;;;;;18.97;8.03;;;6.30;99.90;;;;;;5035529;28;20469;-67
2023/10/18 03:13:31;;;;;;;8.60;6.87;;;6.30;99.90;;;;;;5035264;28;20468;-67
2023/10/18 03:16:06;;;;;;;12.60;7.00;;;6.30;99.90;;;;;;5034705;28;20472;-66
2023/10/18 03:18:36;;;;;;;10.80;6.80;;;6.30;99.90;;;;;;5036092;28;20514;-66
2023/10/18 03:21:08;;;;;;;10.23;7.30;;;6.20;99.90;;;;;;5035964;28;20429;-67
2023/10/18 03:23:44;;;;;;;8.57;6.43;;;6.20;99.90;;;;;;5036025;28;20476;-67
2023/10/18 03:26:11;;;;;;;8.80;6.37;;;6.20;99.90;;;;;;5034831;28;20436;-67
2023/10/18 03:28:46;;;;;;;10.43;6.10;;;6.20;99.90;;;;;;5038169;28;20983;-66
2023/10/18 03:31:22;;;;;;;11.37;7.63;;;6.20;99.90;;;;;;5036754;28;20452;-66
2023/10/18 03:33:53;;;;;;;9.73;6.47;;;6.20;99.90;;;;;;5035765;28;20554;-66
2023/10/18 03:36:21;;;;;;;10.20;6.50;;;6.20;99.90;;;;;;5038854;28;20487;-68
2023/10/18 03:39:10;;;;;;;9.53;5.57;;;6.10;99.90;;;;;;5043376;28;20474;-67
2023/10/18 03:41:41;;;;;;;7.33;6.50;;;6.10;99.90;;;;;;5045253;28;20969;-67
2023/10/18 03:44:09;;;;;;;13.90;6.60;;;6.10;99.90;;;;;;5044590;28;20488;-66
2023/10/18 03:46:51;;;;;;;8.67;6.13;;;6.10;99.90;;;;;;5044223;28;20469;-66
2023/10/18 03:49:27;;;;;;;6.73;5.73;;;6.00;99.90;;;;;;5043754;28;20435;-67
2023/10/18 03:51:56;;;;;;;10.67;7.30;;;6.00;99.90;;;;;;5041124;28;20432;-66
2023/10/18 03:54:45;;;;;;;9.00;6.50;;;5.90;99.90;;;;;;5042866;28;20528;-66
2023/10/18 03:57:16;;;;;;;9.57;6.63;;;5.90;99.90;;;;;;5040417;28;20449;-66
2023/10/18 03:59:49;;;;;;;8.43;6.10;;;5.90;99.90;;;;;;5041154;28;20480;-66
2023/10/18 04:02:26;;;;;;;8.63;6.70;;;5.90;99.90;;;;;;5040611;28;20451;-65
2023/10/18 04:05:13;;;;;;;10.80;6.40;;;5.80;99.90;;;;;;5042162;28;20468;-67
2023/10/18 04:07:46;;;;;;;7.10;5.43;;;5.80;99.90;;;;;;5042875;28;20495;-65
2023/10/18 04:10:17;;;;;;;11.27;7.17;;;5.70;99.90;;;;;;5042082;28;20456;-67
2023/10/18 04:12:45;;;;;;;7.77;6.83;;;5.80;99.90;;;;;;5041194;28;20429;-67
2023/10/18 04:15:21;;;;;;;9.07;6.30;;;5.80;99.90;;;;;;5034477;28;20478;-68
2023/10/18 04:18:03;;;;;;;7.97;5.50;;;5.70;99.90;;;;;;5035215;28;20424;-66
2023/10/18 04:20:32;;;;;;;7.90;6.10;;;5.70;99.90;;;;;;5035070;28;20494;-66
2023/10/18 04:23:14;;;;;;;7.13;5.90;;;5.70;99.90;;;;;;5036620;28;20431;-67
2023/10/18 04:25:42;;;;;;;8.03;4.87;;;5.60;99.90;;;;;;5036152;28;20433;-67
2023/10/18 04:28:11;;;;;;;6.73;5.67;;;5.60;99.90;;;;;;5033777;28;20428;-66
2023/10/18 04:30:38;;;;;;;8.10;5.80;;;5.60;99.90;;;;;;5039818;28;20523;-66
2023/10/18 04:33:24;;;;;;;9.40;6.77;;;5.60;99.90;;;;;;5039886;28;20424;-66
2023/10/18 04:35:55;;;;;;;7.57;6.27;;;5.60;99.90;;;;;;5036989;28;20968;-66
2023/10/18 04:38:29;;;;;;;7.43;5.17;;;5.50;99.90;;;;;;5036264;28;20475;-66
2023/10/18 04:41:08;;;;;;;11.43;5.20;;;5.50;99.90;;;;;;5015664;28;20473;-66
2023/10/18 04:51:33;;;;;;;11.83;7.10;;;5.50;99.90;;;;;;4992335;28;20478;-68
2023/10/18 04:54:08;;;;;;;13.13;6.50;;;5.50;99.90;;;;;;4993946;28;20466;-68
2023/10/18 04:56:34;;;;;;;10.40;6.40;;;5.40;99.90;;;;;;4993708;28;20488;-68
2023/10/18 04:59:10;;;;;;;8.20;5.73;;;5.50;99.90;;;;;;4994374;28;20820;-68
2023/10/18 05:01:56;;;;;;;8.70;5.50;;;5.60;99.90;;;;;;4995415;28;20484;-69
2023/10/18 05:04:24;;;;;;;11.67;6.73;;;5.70;99.90;;;;;;4992238;28;20552;-69
2023/10/18 05:06:56;;;;;;;8.20;5.30;;;5.60;99.90;;;;;;5009762;28;20441;-69
2023/10/18 05:09:43;;;;;;;9.83;6.63;;;5.60;99.90;;;;;;5013010;28;20495;-71
2023/10/18 05:17:23;;;;;;;6.13;5.40;;;5.50;99.90;;;;;;5044992;28;20464;-71
2023/10/18 05:19:51;;;;;;;6.57;5.20;;;5.50;99.90;;;;;;5049146;28;20495;-71
2023/10/18 05:22:23;;;;;;;12.60;5.77;;;5.50;99.90;;;;;;5046788;28;20483;-73
2023/10/18 05:24:57;;;;;;;10.40;7.30;;;5.50;99.90;;;;;;5046506;28;20571;-72
2023/10/18 05:27:27;;;;;;;8.10;6.00;;;5.50;99.90;;;;;;5046162;28;20515;-68
2023/10/18 05:29:57;;;;;;;14.30;7.37;;;5.40;99.90;;;;;;5046503;28;20474;-72
2023/10/18 05:32:47;;;;;;;8.43;6.33;;;5.40;99.90;;;;;;5041732;28;20508;-71
2023/10/18 05:35:21;;;;;;;11.10;6.13;;;5.40;99.90;;;;;;5027719;28;20493;-70
2023/10/18 05:37:58;;;;;;;10.97;7.13;;;5.40;99.90;;;;;;5047089;28;20515;-68
2023/10/18 05:40:49;;;;;;;8.50;7.40;;;5.40;99.90;;;;;;5051269;28;20487;-68
2023/10/18 05:43:22;;;;;;;10.43;6.30;;;5.40;99.90;;;;;;5055324;28;20518;-73
2023/10/18 05:45:50;;;;;;;7.93;5.30;;;5.40;99.90;;;;;;5057484;28;20547;-72
2023/10/18 05:48:22;;;;;;;12.33;7.50;;;5.40;99.90;;;;;;5063032;28;20431;-70
2023/10/18 05:50:56;;;;;;;9.40;6.77;;;5.40;99.90;;;;;;5070859;28;20430;-72
2023/10/18 05:53:28;;;;;;;10.60;6.77;;;5.40;99.90;;;;;;5055553;28;20456;-67
2023/10/18 05:55:55;;;;;;;9.07;7.73;;;5.40;99.90;;;;;;5051585;28;20444;-70
2023/10/18 05:58:26;;;;;;;11.30;7.17;;;5.40;99.90;;;;;;5048371;28;20483;-73
2023/10/18 06:00:56;;;;;;;16.00;7.00;;;5.50;99.90;;;;;;5047523;28;20478;-67
2023/10/18 06:03:25;;;;;;;10.87;5.27;;;5.50;99.90;;;;;;5051921;28;20455;-72
2023/10/18 06:05:55;;;;;;;10.17;6.20;;;5.40;99.90;;;;;;5052543;28;20539;-70
2023/10/18 06:08:24;;;;;;;11.33;6.57;;;5.50;99.90;;;;;;5051394;28;20452;-62
2023/10/18 06:10:56;;;;;;;14.60;6.00;;;5.50;99.90;;;;;;5053035;28;20459;-69
2023/10/18 06:13:26;;;;;;;9.03;5.70;;;5.50;99.90;;;;;;5052332;28;20459;-70
2023/10/18 06:15:58;;;;;;;8.90;7.03;;;5.50;99.90;;;;;;5051973;28;20472;-72
2023/10/18 06:18:30;;;;;;;14.47;6.17;;;5.60;99.90;;;;;;5052208;28;20487;-61
2023/10/18 06:20:59;;;;;;;15.03;7.20;;;5.60;99.90;;;;;;5051740;28;20456;-64
2023/10/18 06:23:39;;;;;;;17.07;7.30;;;5.70;99.90;;;;;;5051517;28;20457;-64
2023/10/18 06:26:28;;;;;;;14.37;8.40;;;5.80;99.90;;;;;;5051541;28;20474;-67
2023/10/18 06:29:00;;;;;;;10.33;6.47;;;5.80;99.90;;;;;;5052648;28;20428;-74
2023/10/18 06:31:29;;;;;;;10.90;6.47;;;5.90;99.90;;;;;;5050966;28;20453;-64
2023/10/18 06:33:58;;;;;;;12.20;7.70;;;5.90;99.90;;;;;;5051013;28;20543;-69
2023/10/18 06:36:26;;;;;;;11.87;7.67;;;5.90;99.90;;;;;;5052238;28;20479;-61
2023/10/18 06:38:54;;;;;;;13.60;6.73;;;5.90;99.90;;;;;;5051729;28;20858;-72
2023/10/18 06:41:22;;;;;;;13.30;5.33;;;5.90;99.90;;;;;;5051400;28;20502;-74
2023/10/18 06:43:50;;;;;;;9.67;6.50;;;5.90;99.90;;;;;;5051050;28;20459;-71
2023/10/18 06:46:22;;;;;;;10.53;6.90;;;6.00;99.90;;;;;;5050224;28;20516;-73
2023/10/18 06:48:54;;;;;;;8.23;5.70;;;6.00;99.90;;;;;;5053652;28;20439;-58
2023/10/18 06:51:30;;;;;;;13.53;6.53;;;6.00;99.90;;;;;;5052870;28;20904;-72
2023/10/18 06:53:59;;;;;;;7.40;6.20;;;6.00;99.90;;;;;;5043770;28;20428;-73
2023/10/18 06:56:29;;;;;;;20.87;6.33;;;6.10;99.90;;;;;;5043112;28;20444;-71
2023/10/18 06:59:04;;;;;;;11.07;6.60;;;6.20;99.90;;;;;;5040892;28;20439;-74
2023/10/18 07:01:31;;;;;;;11.00;7.67;;;6.20;99.90;;;;;;5043098;28;20502;-71
2023/10/18 07:04:00;;;;;;;8.83;6.80;;;6.30;99.90;;;;;;5060543;28;20466;-65
2023/10/18 07:06:35;;;;;;;9.80;6.90;;;6.30;99.90;;;;;;5060299;28;20765;-67
2023/10/18 07:09:24;;;;;;;10.03;5.87;;;6.40;99.90;;;;;;5044307;28;20468;-67
2023/10/18 07:11:50;;;;;;;9.90;5.93;;;6.40;99.90;;;;;;5041174;28;20467;-66
2023/10/18 07:14:19;;;;;;;12.63;6.20;;;6.40;99.90;;;;;;5041023;28;20925;-67
2023/10/18 07:16:48;;;;;;;10.17;6.90;;;6.50;99.90;;;;;;5035956;28;20487;-64
2023/10/18 07:19:29;;;;;;;13.90;7.40;;;6.60;99.90;;;;;;5040662;28;20480;-65
2023/10/18 07:21:58;;;;;;;13.77;7.00;;;6.70;99.90;;;;;;5038504;28;20447;-66
2023/10/18 07:24:32;;;;;;;11.23;7.10;;;6.80;99.90;;;;;;5041282;28;20467;-67
2023/10/18 07:27:03;;;;;;;12.50;7.07;;;6.90;99.90;;;;;;5033720;28;20439;-66
2023/10/18 07:29:31;;;;;;;12.20;6.80;;;7.00;99.90;;;;;;5040213;28;20452;-66
2023/10/18 07:31:59;;;;;;;11.13;6.70;;;7.10;99.90;;;;;;5033937;28;20498;-66
2023/10/18 07:34:31;;;;;;;12.77;7.30;;;7.20;99.90;;;;;;5038479;28;20505;-62
2023/10/18 07:36:59;;;;;;;10.57;6.10;;;7.20;99.90;;;;;;5031679;28;20432;-64
2023/10/18 07:39:27;;;;;;;8.93;6.93;;;7.30;99.90;;;;;;5029943;28;20516;-64
2023/10/18 07:41:55;;;;;;;12.73;7.00;;;7.50;99.90;;;;;;5057562;28;20563;-54
2023/10/18 07:44:23;;;;;;;9.03;6.87;;;7.80;99.90;;;;;;5045215;28;20559;-60
2023/10/18 07:46:50;;;;;;;12.27;6.93;;;7.90;99.90;;;;;;5053176;28;20435;-51
2023/10/18 07:49:18;;;;;;;14.43;7.00;;;8.00;99.90;;;;;;5053577;28;20413;-56
2023/10/18 07:51:55;;;;;;;13.90;7.10;;;8.00;99.90;;;;;;5053867;28;20439;-55
2023/10/18 07:54:24;;;;;;;11.10;7.90;;;8.00;99.90;;;;;;5060571;28;20439;-50
2023/10/18 07:56:59;;;;;;;13.23;7.30;;;8.10;99.90;;;;;;5067097;28;20412;-51
2023/10/18 07:59:29;;;;;;;9.27;7.20;;;8.20;99.90;;;;;;5067911;28;20502;-54
2023/10/18 08:02:09;;;;;;;10.70;7.57;;;8.30;99.90;;;;;;5068717;28;20475;-54
2023/10/18 08:04:37;;;;;;;9.23;6.97;;;8.30;99.90;;;;;;5064285;28;20448;-56
2023/10/18 08:07:12;;;;;;;10.40;7.97;;;8.40;99.90;;;;;;5059845;28;20433;-53
2023/10/18 08:09:43;;;;;;;22.10;8.20;;;8.40;99.90;;;;;;5056878;28;20452;-53
2023/10/18 08:12:22;;;;;;;13.70;9.17;;;8.40;99.90;;;;;;5057833;28;20442;-50
2023/10/18 08:14:49;;;;;;;13.33;9.57;;;8.50;99.90;;;;;;5058008;28;20439;-52
2023/10/18 08:17:42;;;;;;;13.87;8.37;;;8.60;99.90;;;;;;5057639;28;20452;-54
2023/10/18 08:20:55;;;;;;;17.43;8.70;;;8.70;99.90;;;;;;5057754;28;20472;-50
2023/10/18 08:23:35;;;;;;;11.43;7.63;;;8.80;99.90;;;;;;5052814;28;20420;-48
2023/10/18 08:26:09;;;;;;;10.77;7.73;;;8.90;99.90;;;;;;5053707;28;20476;-49
2023/10/18 08:28:45;;;;;;;14.00;8.27;;;8.90;99.90;;;;;;5054451;28;20443;-48
2023/10/18 08:31:17;;;;;;;13.20;9.37;;;9.00;99.90;;;;;;5057273;28;20419;-52
2023/10/18 08:33:44;;;;;;;11.47;9.00;;;9.10;99.90;;;;;;5057559;28;20428;-50
2023/10/18 08:36:13;;;;;;;10.87;7.80;;;9.20;99.90;;;;;;5055533;28;20436;-51
2023/10/18 08:38:42;;;;;;;13.77;9.57;;;9.20;99.90;;;;;;5057651;28;20451;-51
2023/10/18 08:41:15;;;;;;;10.90;8.80;;;9.30;99.90;;;;;;5057136;28;20471;-54
2023/10/18 08:44:08;;;;;;;11.27;8.17;;;9.50;99.90;;;;;;5057212;28;20408;-56
2023/10/18 08:46:43;;;;;;;11.17;8.27;;;9.60;99.90;;;;;;5054558;28;20443;-53
2023/10/18 08:49:13;;;;;;;15.80;9.10;;;9.70;99.90;;;;;;5057007;28;20431;-47
2023/10/18 08:51:45;;;;;;;10.30;8.03;;;9.80;99.90;;;;;;5057793;28;20978;-53
2023/10/18 08:54:19;;;;;;;12.13;8.40;;;9.90;99.90;;;;;;5038029;28;20413;-55
2023/10/18 08:56:48;;;;;;;13.03;7.60;;;9.90;99.90;;;;;;5047881;28;20595;-52
2023/10/18 08:59:20;;;;;;;11.60;8.27;;;10.10;99.90;;;;;;5057677;28;20404;-51
2023/10/18 09:02:09;;;;;;;12.93;7.83;;;10.10;99.90;;;;;;5037881;28;20473;-52
2023/10/18 09:04:36;;;;;;;11.47;7.90;;;10.20;99.90;;;;;;5037869;28;20508;-54
2023/10/18 09:07:18;;;;;;;9.73;7.13;;;10.30;99.90;;;;;;5038310;28;20449;-54
2023/10/18 09:09:53;;;;;;;13.30;9.50;;;10.40;99.90;;;;;;5057730;28;20411;-55
2023/10/18 09:12:33;;;;;;;9.33;7.70;;;10.60;99.90;;;;;;5057289;28;20435;-49
2023/10/18 09:15:28;;;;;;;10.10;7.57;;;10.70;99.90;;;;;;5059700;28;20456;-54
2023/10/18 09:18:04;;;;;;;14.57;8.70;;;10.80;99.90;;;;;;5059298;28;20470;-56
2023/10/18 09:20:31;;;;;;;14.47;9.00;;;11.10;99.90;;;;;;5061078;28;20446;-52
2023/10/18 09:23:03;;;;;;;10.07;7.43;;;11.20;99.90;;;;;;5061513;28;20450;-53
2023/10/18 09:25:47;;;;;;;13.13;9.30;;;11.50;99.90;;;;;;5061517;28;20446;-52
2023/10/18 09:28:19;;;;;;;12.90;8.57;;;11.80;99.90;;;;;;5060850;28;20504;-56
2023/10/18 09:30:48;;;;;;;12.13;8.90;;;12.30;99.90;;;;;;5052306;28;20457;-52
2023/10/18 09:33:15;;;;;;;8.87;7.47;;;13.30;99.90;;;;;;5041393;28;20444;-54
2023/10/18 09:35:47;;;;;;;8.70;7.30;;;14.90;99.90;;;;;;5041354;28;20406;-54
2023/10/18 09:38:17;;;;;;;8.57;6.80;;;16.50;99.90;;;;;;5041454;28;20449;-56
2023/10/18 09:40:44;;;;;;;9.43;6.67;;;18.00;99.90;;;;;;5041100;28;20465;-53
2023/10/18 09:43:11;;;;;;;7.17;5.93;;;19.20;99.90;;;;;;5040885;28;20416;-49
2023/10/18 09:45:39;;;;;;;10.87;7.27;;;20.00;99.60;;;;;;5041322;28;20409;-48
2023/10/18 09:48:11;;;;;;;7.67;6.53;;;20.50;96.60;;;;;;5041134;28;20444;-50
2023/10/18 09:50:41;;;;;;;6.60;5.80;;;20.90;93.20;;;;;;5041146;28;20441;-52
2023/10/18 09:53:12;;;;;;;6.23;5.50;;;21.20;90.60;;;;;;5041184;28;20415;-56
2023/10/18 09:55:42;;;;;;;15.87;8.10;;;21.20;89.00;;;;;;5041118;28;20433;-52
2023/10/18 09:58:15;;;;;;;6.50;5.43;;;21.60;85.20;;;;;;5040882;28;20468;-52
2023/10/18 10:00:49;;;;;;;5.00;4.50;;;21.50;81.80;;;;;;5049008;28;20460;-51
2023/10/18 10:03:24;;;;;;;6.50;4.97;;;21.80;79.70;;;;;;5060515;28;20474;-52
2023/10/18 10:05:52;;;;;;;5.83;4.77;;;22.10;77.40;;;;;;5060753;28;20428;-52
2023/10/18 10:08:23;;;;;;;22.93;7.70;;;22.20;76.40;;;;;;5060657;28;20417;-49
2023/10/18 10:10:51;;;;;;;6.70;5.17;;;22.30;74.50;;;;;;5060704;28;20463;-50
2023/10/18 10:13:19;;;;;;;7.63;5.43;;;22.20;73.90;;;;;;5060547;28;20439;-56
2023/10/18 10:15:54;;;;;;;8.93;5.50;;;22.20;73.70;;;;;;5060478;28;20436;-51
2023/10/18 10:18:27;;;;;;;9.77;5.30;;;22.20;72.80;;;;;;5060659;28;20422;-49
2023/10/18 10:20:58;;;;;;;6.13;5.50;;;22.40;71.60;;;;;;5060439;28;20436;-53
2023/10/18 10:23:26;;;;;;;6.63;4.97;;;22.60;70.10;;;;;;5059975;28;20440;-51
2023/10/18 10:26:11;;;;;;;6.47;5.77;;;22.80;69.30;;;;;;5060188;28;20425;-52
2023/10/18 10:31:51;;;;;;;7.23;4.90;;;22.50;66.90;;;;;;5060371;28;20439;-51
2023/10/18 10:34:26;;;;;;;4.90;3.87;;;22.40;66.80;;;;;;5060324;28;20476;-49
2023/10/18 10:36:53;;;;;;;4.27;3.70;;;22.40;65.20;;;;;;5059922;28;20456;-54
2023/10/18 10:39:30;;;;;;;6.43;5.50;;;22.10;65.80;;;;;;5060307;28;20491;-50
2023/10/18 10:42:08;;;;;;;6.37;5.30;;;21.80;67.00;;;;;;5060104;28;20455;-49
2023/10/18 10:44:55;;;;;;;4.70;4.30;;;21.60;67.00;;;;;;5060027;28;20462;-51
2023/10/18 10:47:42;;;;;;;4.60;3.90;;;21.10;66.60;;;;;;5060092;28;20447;-51
2023/10/18 10:50:45;;;;;;;8.13;5.43;;;20.80;68.40;;;;;;5059930;28;20523;-51
2023/10/18 10:53:15;;;;;;;7.90;3.80;;;20.20;68.60;;;;;;5059930;28;20451;-51
2023/10/18 10:55:43;;;;;;;5.83;3.67;;;19.90;69.50;;;;;;5059803;28;20420;-50
2023/10/18 10:58:16;;;;;;;8.40;4.57;;;19.40;69.90;;;;;;5059500;28;20496;-51
2023/10/18 11:01:02;;;;;;;4.57;4.03;;;19.10;72.10;;;;;;5059784;28;20460;-49
2023/10/18 11:03:33;;;;;;;8.53;4.83;;;18.80;71.90;;;;;;5059708;28;20491;-50
2023/10/18 11:06:10;;;;;;;4.90;4.10;;;18.30;75.30;;;;;;5059737;28;20454;-52
2023/10/18 11:08:37;;;;;;;6.40;4.63;;;17.80;76.80;;;;;;5059698;28;20479;-51
2023/10/18 11:11:06;;;;;;;7.53;5.10;;;17.30;78.50;;;;;;5059632;28;20431;-48
2023/10/18 11:13:41;;;;;;;7.63;4.70;;;17.00;81.00;;;;;;5059469;28;20413;-55
2023/10/18 11:16:11;;;;;;;4.93;3.70;;;16.60;82.90;;;;;;5058827;28;20451;-52
2023/10/18 11:18:42;;;;;;;9.20;4.83;;;16.20;84.70;;;;;;5059531;28;20472;-51
2023/10/18 11:21:21;;;;;;;5.00;4.10;;;16.00;85.70;;;;;;5059202;28;20483;-47
2023/10/18 11:23:53;;;;;;;6.57;4.40;;;15.90;89.20;;;;;;5059169;28;20440;-57
2023/10/18 11:26:24;;;;;;;4.80;3.90;;;15.70;90.80;;;;;;5059206;28;20477;-48
2023/10/18 11:28:55;;;;;;;6.50;4.33;;;15.50;92.50;;;;;;5059299;28;20409;-48
2023/10/18 11:31:26;;;;;;;7.03;4.27;;;15.30;92.90;;;;;;5059192;28;20427;-49
2023/10/18 11:33:59;;;;;;;5.33;3.83;;;15.20;93.40;;;;;;5059189;28;20452;-48
2023/10/18 11:36:28;;;;;;;5.07;4.20;;;15.10;93.20;;;;;;5058314;28;20470;-51
2023/10/18 11:41:44;;;;;;;4.87;3.87;;;14.90;94.00;;;;;;5058770;28;20516;-48
2023/10/18 11:44:16;;;;;;;4.40;3.60;;;14.80;94.70;;;;;;5058936;28;20444;-52
2023/10/18 11:46:46;;;;;;;5.77;3.90;;;14.70;94.80;;;;;;5058896;28;20419;-51
2023/10/18 11:49:14;;;;;;;4.80;4.17;;;14.70;95.70;;;;;;5058617;28;20409;-50
2023/10/18 11:51:46;;;;;;;7.70;4.20;;;14.70;95.80;;;;;;5058581;28;20412;-52
2023/10/18 11:54:28;;;;;;;5.03;3.90;;;14.60;96.10;;;;;;5058728;28;20436;-50
2023/10/18 11:56:56;;;;;;;5.90;4.70;;;14.60;96.50;;;;;;5058697;28;20475;-57
2023/10/18 11:59:23;;;;;;;5.20;4.17;;;14.60;95.90;;;;;;5058604;28;20408;-56
2023/10/18 12:01:57;;;;;;;6.40;4.30;;;14.70;96.30;;;;;;5058590;28;20526;-56
2023/10/18 12:04:28;;;;;;;4.87;4.00;;;14.70;96.70;;;;;;5058559;28;20405;-50
2023/10/18 12:07:02;;;;;;;6.00;4.07;;;14.70;96.80;;;;;;5058590;28;20479;-50
2023/10/18 12:09:31;;;;;;;5.43;4.00;;;14.70;97.10;;;;;;5058452;28;20470;-49
2023/10/18 12:12:04;;;;;;;7.07;5.00;;;14.70;97.30;;;;;;5058409;28;20436;-52
2023/10/18 12:14:36;;;;;;;6.03;4.83;;;14.70;97.30;;;;;;5058491;28;20416;-55
2023/10/18 12:17:04;;;;;;;6.43;4.40;;;14.70;97.40;;;;;;5058329;28;20448;-45
2023/10/18 12:19:31;;;;;;;4.93;4.13;;;14.70;96.40;;;;;;5058542;28;20408;-50
2023/10/18 12:22:00;;;;;;;8.57;4.53;;;14.70;96.40;;;;;;5058275;28;20443;-51
2023/10/18 12:24:33;;;;;;;5.53;4.93;;;14.70;96.40;;;;;;5058254;28;20427;-53
2023/10/18 12:29:59;;;;;;;5.07;4.07;;;14.80;97.50;;;;;;5056305;28;20444;-53
2023/10/18 12:32:26;;;;;;;5.07;3.93;;;14.90;97.20;;;;;;5058187;28;20439;-51
2023/10/18 12:35:06;;;;;;;6.20;4.70;;;15.10;97.00;;;;;;5058154;28;20405;-56
2023/10/18 12:37:40;;;;;;;5.43;4.20;;;15.10;97.00;;;;;;5058061;28;20448;-54
2023/10/18 12:40:17;;;;;;;9.57;4.53;;;15.20;97.20;;;;;;5058062;28;20439;-54
2023/10/18 12:42:46;;;;;;;5.37;4.00;;;15.30;97.00;;;;;;5057966;28;20446;-53
2023/10/18 12:45:18;;;;;;;7.80;5.20;;;15.30;97.00;;;;;;5068427;28;20413;-54
2023/10/18 12:47:51;;;;;;;5.27;4.43;;;15.30;96.90;;;;;;5061356;28;20447;-53
2023/10/18 12:50:19;;;;;;;8.87;6.63;;;15.50;96.80;;;;;;5061716;28;20455;-61
2023/10/18 12:52:52;;;;;;;9.73;6.07;;;15.50;96.80;;;;;;5076640;28;20508;-64
2023/10/18 12:58:06;;;;;;;6.27;4.30;;;15.30;96.40;;;;;;5075584;28;20439;-65
2023/10/18 13:00:36;;;;;;;6.33;4.80;;;15.30;96.70;;;;;;5076328;28;20411;-70
2023/10/18 13:05:49;;;;;;;6.03;4.53;;;15.20;97.20;;;;;;5073670;28;20446;-52
2023/10/18 13:08:17;;;;;;;10.50;6.40;;;15.20;97.50;;;;;;5076633;28;20499;-54
2023/10/18 13:11:18;;;;;;;12.10;5.10;;;15.30;97.50;;;;;;5067223;28;20464;-50
2023/10/18 13:13:45;;;;;;;5.90;4.50;;;15.40;97.30;;;;;;5056652;28;20552;-63
2023/10/18 13:16:15;;;;;;;8.33;4.27;;;15.50;96.30;;;;;;5056201;28;20456;-58
2023/10/18 13:18:42;;;;;;;5.70;4.10;;;15.50;95.90;;;;;;5056818;28;20436;-56
2023/10/18 13:21:13;;;;;;;4.77;4.13;;;15.50;96.10;;;;;;5056315;28;20495;-65
2023/10/18 13:23:46;;;;;;;6.67;4.13;;;15.50;95.70;;;;;;5056865;28;20471;-48
2023/10/18 13:26:19;;;;;;;7.70;5.40;;;15.60;95.40;;;;;;5057088;28;20433;-63
2023/10/18 13:28:52;;;;;;;7.70;4.83;;;15.60;95.80;;;;;;5056615;28;20447;-49
2023/10/18 13:31:30;;;;;;;9.03;4.50;;;15.60;95.30;;;;;;5056349;28;20460;-54
2023/10/18 13:33:57;;;;;;;7.20;4.50;;;15.60;95.60;;;;;;5057189;28;20462;-54
2023/10/18 13:36:24;;;;;;;8.90;4.97;;;15.60;95.80;;;;;;5057116;28;20463;-54
2023/10/18 13:38:53;;;;;;;6.63;5.50;;;15.50;95.00;;;;;;5056553;28;20425;-57
2023/10/18 13:41:20;;;;;;;5.67;4.30;;;15.40;95.20;;;;;;5056521;28;20551;-48